sensor_id;sensor_type;location;lat;lon;timestamp;pressure;altitude;pressure_sealevel;temperature;humidity
78913;BME280;68303;53.514;-8.850;2023-02-28T16:16:06;103658.99;;;21.35;24.37
78913;BME280;68303;53.514;-8.850;2023-02-28T16:18:30;103655.92;;;21.75;24.47
78913;BME280;68303;53.514;-8.850;2023-02-28T16:20:56;103655.22;;;21.89;24.53
78913;BME280;68303;53.514;-8.850;2023-02-28T16:23:21;103655.35;;;21.82;24.66
78913;BME280;68303;53.514;-8.850;2023-02-28T16:25:47;103660.51;;;21.95;24.66
78913;BME280;68303;53.514;-8.850;2023-02-28T16:28:19;103660.30;;;22.02;24.92
78913;BME280;68303;53.514;-8.850;2023-02-28T16:30:38;103661.68;;;21.89;24.96
78913;BME280;68303;53.514;-8.850;2023-02-28T16:33:04;103663.54;;;21.79;24.95
78913;BME280;68303;53.514;-8.850;2023-02-28T16:35:30;103665.84;;;21.85;25.18
78913;BME280;68303;53.514;-8.850;2023-02-28T16:37:55;103664.07;;;22.06;25.32
78913;BME280;68303;53.514;-8.850;2023-02-28T16:40:23;103669.03;;;21.64;25.48
78913;BME280;68303;53.514;-8.850;2023-02-28T16:42:47;103669.45;;;21.93;25.51
78913;BME280;68303;53.514;-8.850;2023-02-28T16:45:16;103670.69;;;22.08;25.64
78913;BME280;68303;53.514;-8.850;2023-02-28T16:47:36;103670.57;;;21.66;25.48
78913;BME280;68303;53.514;-8.850;2023-02-28T16:50:08;103671.66;;;22.04;25.62
78913;BME280;68303;53.514;-8.850;2023-02-28T16:52:27;103668.44;;;22.83;25.66
78913;BME280;68303;53.514;-8.850;2023-02-28T16:54:53;103668.20;;;22.57;25.90
78913;BME280;68303;53.514;-8.850;2023-02-28T16:57:21;103667.62;;;22.63;26.13
78913;BME280;68303;53.514;-8.850;2023-02-28T16:59:44;103670.49;;;22.39;26.41
78913;BME280;68303;53.514;-8.850;2023-02-28T17:02:11;103674.03;;;22.35;26.38
78913;BME280;68303;53.514;-8.850;2023-02-28T17:04:35;103673.96;;;22.62;26.21
78913;BME280;68303;53.514;-8.850;2023-02-28T17:07:00;103674.45;;;22.81;26.15
78913;BME280;68303;53.514;-8.850;2023-02-28T17:09:26;103678.42;;;22.34;26.31
78913;BME280;68303;53.514;-8.850;2023-02-28T17:11:52;103679.47;;;22.67;26.23
78913;BME280;68303;53.514;-8.850;2023-02-28T17:14:17;103679.28;;;22.50;26.37
78913;BME280;68303;53.514;-8.850;2023-02-28T17:16:43;103680.94;;;21.76;26.55
78913;BME280;68303;53.514;-8.850;2023-02-28T17:19:12;103680.33;;;21.96;26.59
78913;BME280;68303;53.514;-8.850;2023-02-28T17:21:33;103681.46;;;21.92;26.42
78913;BME280;68303;53.514;-8.850;2023-02-28T17:23:59;103683.51;;;22.38;26.47
78913;BME280;68303;53.514;-8.850;2023-02-28T17:26:25;103684.64;;;22.13;26.46
78913;BME280;68303;53.514;-8.850;2023-02-28T17:28:50;103686.91;;;21.99;26.59
78913;BME280;68303;53.514;-8.850;2023-02-28T17:31:15;103689.12;;;22.32;26.52
78913;BME280;68303;53.514;-8.850;2023-02-28T17:33:41;103693.99;;;22.37;26.49
78913;BME280;68303;53.514;-8.850;2023-02-28T17:36:10;103696.65;;;21.92;26.65
78913;BME280;68303;53.514;-8.850;2023-02-28T17:38:32;103699.61;;;22.36;26.52
78913;BME280;68303;53.514;-8.850;2023-02-28T17:40:57;103701.97;;;22.04;26.56
78913;BME280;68303;53.514;-8.850;2023-02-28T17:43:24;103703.51;;;22.16;26.62
78913;BME280;68303;53.514;-8.850;2023-02-28T17:45:48;103701.91;;;22.20;26.62
78913;BME280;68303;53.514;-8.850;2023-02-28T17:48:14;103705.70;;;22.10;26.71
78913;BME280;68303;53.514;-8.850;2023-02-28T17:50:39;103707.04;;;22.05;26.73
78913;BME280;68303;53.514;-8.850;2023-02-28T17:53:05;103703.72;;;22.09;26.69
78913;BME280;68303;53.514;-8.850;2023-02-28T17:55:30;103703.25;;;22.04;26.75
78913;BME280;68303;53.514;-8.850;2023-02-28T17:57:56;103705.25;;;22.06;26.73
78913;BME280;68303;53.514;-8.850;2023-02-28T18:00:22;103707.84;;;22.18;26.66
78913;BME280;68303;53.514;-8.850;2023-02-28T18:02:47;103707.53;;;22.10;26.71
78913;BME280;68303;53.514;-8.850;2023-02-28T18:05:12;103711.00;;;21.60;26.88
78913;BME280;68303;53.514;-8.850;2023-02-28T18:07:38;103717.41;;;21.94;26.80
78913;BME280;68303;53.514;-8.850;2023-02-28T18:10:04;103718.03;;;21.84;26.89
78913;BME280;68303;53.514;-8.850;2023-02-28T18:12:28;103720.95;;;21.97;26.81
78913;BME280;68303;53.514;-8.850;2023-02-28T18:14:54;103721.05;;;21.92;26.86
78913;BME280;68303;53.514;-8.850;2023-02-28T18:17:19;103722.94;;;21.99;26.79
78913;BME280;68303;53.514;-8.850;2023-02-28T18:19:45;103722.30;;;21.62;26.89
78913;BME280;68303;53.514;-8.850;2023-02-28T18:22:10;103725.16;;;21.99;26.78
78913;BME280;68303;53.514;-8.850;2023-02-28T18:24:36;103728.95;;;21.72;26.83
78913;BME280;68303;53.514;-8.850;2023-02-28T18:27:02;103729.45;;;21.86;26.89
78913;BME280;68303;53.514;-8.850;2023-02-28T18:29:27;103731.11;;;21.73;26.97
78913;BME280;68303;53.514;-8.850;2023-02-28T18:31:54;103729.38;;;21.66;27.06
78913;BME280;68303;53.514;-8.850;2023-02-28T18:34:17;103732.32;;;21.82;26.76
78913;BME280;68303;53.514;-8.850;2023-02-28T18:36:42;103730.17;;;21.74;26.98
78913;BME280;68303;53.514;-8.850;2023-02-28T18:39:08;103734.38;;;22.00;26.77
78913;BME280;68303;53.514;-8.850;2023-02-28T18:41:33;103734.81;;;22.21;26.99
78913;BME280;68303;53.514;-8.850;2023-02-28T18:43:59;103737.25;;;21.84;26.93
78913;BME280;68303;53.514;-8.850;2023-02-28T18:46:24;103736.92;;;21.81;26.95
78913;BME280;68303;53.514;-8.850;2023-02-28T18:48:50;103736.58;;;21.84;26.90
78913;BME280;68303;53.514;-8.850;2023-02-28T18:51:17;103732.83;;;21.63;27.07
78913;BME280;68303;53.514;-8.850;2023-02-28T18:53:46;103736.15;;;21.69;26.87
78913;BME280;68303;53.514;-8.850;2023-02-28T18:56:08;103735.55;;;21.78;26.95
78913;BME280;68303;53.514;-8.850;2023-02-28T18:58:32;103733.57;;;21.70;27.02
78913;BME280;68303;53.514;-8.850;2023-02-28T19:00:58;103738.33;;;21.87;26.91
78913;BME280;68303;53.514;-8.850;2023-02-28T19:03:23;103735.29;;;21.65;27.08
78913;BME280;68303;53.514;-8.850;2023-02-28T19:05:48;103732.04;;;21.79;26.99
78913;BME280;68303;53.514;-8.850;2023-02-28T19:08:13;103734.89;;;21.78;26.97
78913;BME280;68303;53.514;-8.850;2023-02-28T19:10:39;103732.41;;;21.50;27.16
78913;BME280;68303;53.514;-8.850;2023-02-28T19:13:04;103730.86;;;21.79;26.97
78913;BME280;68303;53.514;-8.850;2023-02-28T19:15:29;103727.69;;;21.65;27.07
78913;BME280;68303;53.514;-8.850;2023-02-28T19:17:54;103727.14;;;21.82;26.93
78913;BME280;68303;53.514;-8.850;2023-02-28T19:20:20;103725.08;;;21.68;27.03
78913;BME280;68303;53.514;-8.850;2023-02-28T19:22:45;103725.23;;;21.38;27.26
78913;BME280;68303;53.514;-8.850;2023-02-28T19:25:10;103726.59;;;21.50;27.16
78913;BME280;68303;53.514;-8.850;2023-02-28T19:27:36;103724.49;;;21.50;27.17
78913;BME280;68303;53.514;-8.850;2023-02-28T19:30:02;103723.56;;;21.54;27.14
78913;BME280;68303;53.514;-8.850;2023-02-28T19:32:27;103720.24;;;21.54;27.17
78913;BME280;68303;53.514;-8.850;2023-02-28T19:34:52;103720.16;;;21.63;27.07
78913;BME280;68303;53.514;-8.850;2023-02-28T19:37:18;103714.23;;;21.95;27.03
78913;BME280;68303;53.514;-8.850;2023-02-28T19:39:44;103716.62;;;21.44;27.05
78913;BME280;68303;53.514;-8.850;2023-02-28T19:42:10;103713.79;;;21.55;27.11
78913;BME280;68303;53.514;-8.850;2023-02-28T19:44:34;103711.55;;;21.49;27.17
78913;BME280;68303;53.514;-8.850;2023-02-28T19:46:59;103712.98;;;21.65;27.05
78913;BME280;68303;53.514;-8.850;2023-02-28T19:49:24;103709.98;;;21.58;27.11
78913;BME280;68303;53.514;-8.850;2023-02-28T19:51:50;103713.81;;;21.47;27.17
78913;BME280;68303;53.514;-8.850;2023-02-28T19:54:15;103716.15;;;21.77;26.99
78913;BME280;68303;53.514;-8.850;2023-02-28T19:56:40;103718.78;;;21.75;26.97
78913;BME280;68303;53.514;-8.850;2023-02-28T19:59:05;103721.72;;;21.47;27.21
78913;BME280;68303;53.514;-8.850;2023-02-28T20:01:31;103724.90;;;21.46;27.21
78913;BME280;68303;53.514;-8.850;2023-02-28T20:03:56;103726.66;;;21.36;27.28
78913;BME280;68303;53.514;-8.850;2023-02-28T20:06:21;103728.32;;;21.52;27.14
78913;BME280;68303;53.514;-8.850;2023-02-28T20:08:47;103732.58;;;21.65;27.23
78913;BME280;68303;53.514;-8.850;2023-02-28T20:11:14;103733.79;;;21.55;27.11
78913;BME280;68303;53.514;-8.850;2023-02-28T20:13:38;103736.87;;;22.08;27.10
78913;BME280;68303;53.514;-8.850;2023-02-28T20:16:06;103742.13;;;21.78;26.96
78913;BME280;68303;53.514;-8.850;2023-02-28T20:18:28;103743.66;;;21.46;27.20
78913;BME280;68303;53.514;-8.850;2023-02-28T20:20:53;103745.12;;;21.66;27.04
78913;BME280;68303;53.514;-8.850;2023-02-28T20:23:19;103749.34;;;21.62;27.05
78913;BME280;68303;53.514;-8.850;2023-02-28T20:25:44;103751.60;;;21.31;27.12
78913;BME280;68303;53.514;-8.850;2023-02-28T20:28:09;103750.28;;;21.65;27.05
78913;BME280;68303;53.514;-8.850;2023-02-28T20:30:34;103755.41;;;21.47;27.17
78913;BME280;68303;53.514;-8.850;2023-02-28T20:33:00;103760.37;;;21.51;27.16
78913;BME280;68303;53.514;-8.850;2023-02-28T20:35:25;103763.22;;;21.70;27.02
78913;BME280;68303;53.514;-8.850;2023-02-28T20:37:50;103763.15;;;21.48;27.20
78913;BME280;68303;53.514;-8.850;2023-02-28T20:40:16;103764.84;;;21.52;27.17
78913;BME280;68303;53.514;-8.850;2023-02-28T20:42:41;103764.20;;;21.64;27.06
78913;BME280;68303;53.514;-8.850;2023-02-28T20:45:08;103761.00;;;21.85;27.09
78913;BME280;68303;53.514;-8.850;2023-02-28T20:47:31;103756.71;;;21.52;27.16
78913;BME280;68303;53.514;-8.850;2023-02-28T20:49:57;103757.26;;;21.70;27.02
78913;BME280;68303;53.514;-8.850;2023-02-28T20:52:22;103755.74;;;21.45;27.20
78913;BME280;68303;53.514;-8.850;2023-02-28T20:54:47;103755.34;;;21.43;27.23
78913;BME280;68303;53.514;-8.850;2023-02-28T20:57:12;103752.02;;;21.56;27.13
78913;BME280;68303;53.514;-8.850;2023-02-28T20:59:38;103746.78;;;21.56;27.14
78913;BME280;68303;53.514;-8.850;2023-02-28T21:02:03;103747.42;;;21.44;27.21
78913;BME280;68303;53.514;-8.850;2023-02-28T21:04:28;103743.98;;;21.62;27.06
78913;BME280;68303;53.514;-8.850;2023-02-28T21:06:53;103745.49;;;21.32;27.14
78913;BME280;68303;53.514;-8.850;2023-02-28T21:09:19;103744.66;;;21.40;27.21
78913;BME280;68303;53.514;-8.850;2023-02-28T21:11:44;103742.07;;;21.53;27.10
78913;BME280;68303;53.514;-8.850;2023-02-28T21:14:12;103743.33;;;21.41;27.21
78913;BME280;68303;53.514;-8.850;2023-02-28T21:16:35;103745.64;;;21.44;27.20
78913;BME280;68303;53.514;-8.850;2023-02-28T21:19:00;103743.88;;;21.56;27.12
78913;BME280;68303;53.514;-8.850;2023-02-28T21:21:26;103746.01;;;21.55;27.12
78913;BME280;68303;53.514;-8.850;2023-02-28T21:23:51;103743.36;;;21.50;27.16
78913;BME280;68303;53.514;-8.850;2023-02-28T21:26:18;103745.67;;;21.77;27.12
78913;BME280;68303;53.514;-8.850;2023-02-28T21:28:42;103747.48;;;21.72;27.16
78913;BME280;68303;53.514;-8.850;2023-02-28T21:31:09;103745.58;;;21.47;27.18
78913;BME280;68303;53.514;-8.850;2023-02-28T21:33:33;103743.22;;;21.65;27.20
78913;BME280;68303;53.514;-8.850;2023-02-28T21:36:00;103741.72;;;21.30;27.31
78913;BME280;68303;53.514;-8.850;2023-02-28T21:38:22;103738.67;;;21.62;27.06
78913;BME280;68303;53.514;-8.850;2023-02-28T21:40:48;103737.04;;;21.21;27.19
78913;BME280;68303;53.514;-8.850;2023-02-28T21:43:13;103735.90;;;21.41;27.21
78913;BME280;68303;53.514;-8.850;2023-02-28T21:45:38;103730.96;;;21.60;27.08
78913;BME280;68303;53.514;-8.850;2023-02-28T21:48:04;103730.35;;;21.39;27.05
78913;BME280;68303;53.514;-8.850;2023-02-28T21:50:29;103733.67;;;21.58;27.09
78913;BME280;68303;53.514;-8.850;2023-02-28T21:52:54;103733.25;;;21.39;27.22
78913;BME280;68303;53.514;-8.850;2023-02-28T21:55:20;103734.38;;;21.53;27.13
78913;BME280;68303;53.514;-8.850;2023-02-28T21:57:45;103728.20;;;21.55;27.13
78913;BME280;68303;53.514;-8.850;2023-02-28T22:00:11;103727.45;;;21.64;27.03
78913;BME280;68303;53.514;-8.850;2023-02-28T22:02:35;103726.97;;;21.45;27.19
78913;BME280;68303;53.514;-8.850;2023-02-28T22:05:01;103726.51;;;21.48;27.16
78913;BME280;68303;53.514;-8.850;2023-02-28T22:07:26;103725.44;;;21.37;27.22
78913;BME280;68303;53.514;-8.850;2023-02-28T22:09:52;103725.64;;;21.35;27.26
78913;BME280;68303;53.514;-8.850;2023-02-28T22:12:17;103725.55;;;21.49;27.13
78913;BME280;68303;53.514;-8.850;2023-02-28T22:14:42;103726.73;;;21.36;27.25
78913;BME280;68303;53.514;-8.850;2023-02-28T22:17:07;103725.51;;;21.61;27.07
78913;BME280;68303;53.514;-8.850;2023-02-28T22:19:33;103725.99;;;21.39;27.20
78913;BME280;68303;53.514;-8.850;2023-02-28T22:21:58;103726.45;;;21.44;27.21
78913;BME280;68303;53.514;-8.850;2023-02-28T22:24:23;103725.43;;;21.50;27.16
78913;BME280;68303;53.514;-8.850;2023-02-28T22:26:49;103726.28;;;21.36;27.24
78913;BME280;68303;53.514;-8.850;2023-02-28T22:29:14;103728.71;;;21.54;27.13
78913;BME280;68303;53.514;-8.850;2023-02-28T22:31:39;103728.21;;;21.49;27.15
78913;BME280;68303;53.514;-8.850;2023-02-28T22:34:07;103727.61;;;21.71;26.96
78913;BME280;68303;53.514;-8.850;2023-02-28T22:36:29;103726.24;;;21.43;27.19
78913;BME280;68303;53.514;-8.850;2023-02-28T22:38:56;103726.64;;;21.95;27.15
78913;BME280;68303;53.514;-8.850;2023-02-28T22:41:21;103725.53;;;21.48;27.13
78913;BME280;68303;53.514;-8.850;2023-02-28T22:43:50;103727.14;;;21.47;27.16
78913;BME280;68303;53.514;-8.850;2023-02-28T22:46:11;103730.04;;;21.65;27.21
78913;BME280;68303;53.514;-8.850;2023-02-28T22:48:36;103729.33;;;21.59;27.23
78913;BME280;68303;53.514;-8.850;2023-02-28T22:51:02;103725.47;;;21.19;27.18
78913;BME280;68303;53.514;-8.850;2023-02-28T22:53:26;103722.82;;;21.63;27.01
78913;BME280;68303;53.514;-8.850;2023-02-28T22:55:53;103722.06;;;21.58;27.23
78913;BME280;68303;53.514;-8.850;2023-02-28T22:58:17;103722.01;;;21.67;27.02
78913;BME280;68303;53.514;-8.850;2023-02-28T23:00:42;103720.90;;;21.47;27.18
78913;BME280;68303;53.514;-8.850;2023-02-28T23:03:08;103723.09;;;21.58;27.06
78913;BME280;68303;53.514;-8.850;2023-02-28T23:05:33;103724.55;;;21.44;27.17
78913;BME280;68303;53.514;-8.850;2023-02-28T23:07:58;103722.32;;;21.55;27.09
78913;BME280;68303;53.514;-8.850;2023-02-28T23:10:23;103719.45;;;21.23;27.16
78913;BME280;68303;53.514;-8.850;2023-02-28T23:12:48;103718.13;;;21.44;27.16
78913;BME280;68303;53.514;-8.850;2023-02-28T23:15:14;103716.26;;;21.49;27.12
78913;BME280;68303;53.514;-8.850;2023-02-28T23:17:39;103717.87;;;21.54;27.13
78913;BME280;68303;53.514;-8.850;2023-02-28T23:20:05;103714.63;;;21.50;27.13
78913;BME280;68303;53.514;-8.850;2023-02-28T23:22:29;103713.76;;;21.44;27.19
78913;BME280;68303;53.514;-8.850;2023-02-28T23:24:55;103715.82;;;21.46;27.11
78913;BME280;68303;53.514;-8.850;2023-02-28T23:27:20;103718.03;;;21.31;27.27
78913;BME280;68303;53.514;-8.850;2023-02-28T23:29:45;103716.86;;;21.39;27.22
78913;BME280;68303;53.514;-8.850;2023-02-28T23:32:10;103719.28;;;21.47;27.15
78913;BME280;68303;53.514;-8.850;2023-02-28T23:34:36;103721.32;;;21.58;27.05
78913;BME280;68303;53.514;-8.850;2023-02-28T23:37:01;103720.93;;;21.68;26.96
78913;BME280;68303;53.514;-8.850;2023-02-28T23:39:28;103718.28;;;21.73;26.91
78913;BME280;68303;53.514;-8.850;2023-02-28T23:41:52;103716.97;;;21.50;27.11
78913;BME280;68303;53.514;-8.850;2023-02-28T23:44:17;103716.98;;;21.59;27.06
78913;BME280;68303;53.514;-8.850;2023-02-28T23:46:43;103716.10;;;21.36;27.21
78913;BME280;68303;53.514;-8.850;2023-02-28T23:49:07;103712.20;;;21.45;27.16
78913;BME280;68303;53.514;-8.850;2023-02-28T23:51:32;103712.26;;;21.71;27.11
78913;BME280;68303;53.514;-8.850;2023-02-28T23:53:58;103710.62;;;21.78;27.08
78913;BME280;68303;53.514;-8.850;2023-02-28T23:56:24;103707.83;;;21.37;27.19
78913;BME280;68303;53.514;-8.850;2023-02-28T23:58:48;103710.54;;;21.50;27.11
